sensor_id;sensor_type;location;lat;lon;timestamp;temperature;humidity
1411;DHT22;700;51.906;8.404;2022-11-20T00:02:54;0.40;99.90
1411;DHT22;700;51.906;8.404;2022-11-20T00:07:55;0.40;99.90
1411;DHT22;700;51.906;8.404;2022-11-20T00:12:57;0.30;99.90
1411;DHT22;700;51.906;8.404;2022-11-20T00:17:58;0.10;99.90
1411;DHT22;700;51.906;8.404;2022-11-20T00:22:58;0.30;99.90
1411;DHT22;700;51.906;8.404;2022-11-20T00:27:59;0.20;99.90
1411;DHT22;700;51.906;8.404;2022-11-20T00:33:00;0.20;99.90
1411;DHT22;700;51.906;8.404;2022-11-20T00:38:03;0.10;99.90
1411;DHT22;700;51.906;8.404;2022-11-20T00:43:03;-0.30;99.90
1411;DHT22;700;51.906;8.404;2022-11-20T00:48:04;-0.30;99.90
1411;DHT22;700;51.906;8.404;2022-11-20T00:53:05;-0.30;99.90
1411;DHT22;700;51.906;8.404;2022-11-20T00:58:05;-0.20;99.90
1411;DHT22;700;51.906;8.404;2022-11-20T01:03:06;-0.20;99.90
1411;DHT22;700;51.906;8.404;2022-11-20T01:08:07;-0.10;99.90
1411;DHT22;700;51.906;8.404;2022-11-20T01:13:10;-0.20;99.90
1411;DHT22;700;51.906;8.404;2022-11-20T01:18:29;-0.30;99.90
1411;DHT22;700;51.906;8.404;2022-11-20T01:23:36;-0.60;99.90
1411;DHT22;700;51.906;8.404;2022-11-20T01:28:38;-0.50;99.90
1411;DHT22;700;51.906;8.404;2022-11-20T01:33:42;-0.40;99.90
1411;DHT22;700;51.906;8.404;2022-11-20T01:38:45;-0.50;99.90
1411;DHT22;700;51.906;8.404;2022-11-20T01:43:46;-0.70;99.90
1411;DHT22;700;51.906;8.404;2022-11-20T01:54:12;-0.90;99.90
1411;DHT22;700;51.906;8.404;2022-11-20T01:59:18;-1.00;99.90
1411;DHT22;700;51.906;8.404;2022-11-20T02:04:20;-1.20;99.90
1411;DHT22;700;51.906;8.404;2022-11-20T02:09:23;-1.50;99.90
1411;DHT22;700;51.906;8.404;2022-11-20T02:14:26;-1.30;99.90
1411;DHT22;700;51.906;8.404;2022-11-20T02:19:31;-1.50;99.90
1411;DHT22;700;51.906;8.404;2022-11-20T02:24:31;-1.10;99.90
1411;DHT22;700;51.906;8.404;2022-11-20T02:34:47;-1.00;99.90
1411;DHT22;700;51.906;8.404;2022-11-20T02:39:50;-0.90;99.90
1411;DHT22;700;51.906;8.404;2022-11-20T02:44:51;-0.80;99.90
1411;DHT22;700;51.906;8.404;2022-11-20T02:49:52;-0.80;99.90
1411;DHT22;700;51.906;8.404;2022-11-20T02:54:52;-0.80;99.90
1411;DHT22;700;51.906;8.404;2022-11-20T02:59:53;-1.00;99.90
1411;DHT22;700;51.906;8.404;2022-11-20T03:04:58;-1.10;99.90
1411;DHT22;700;51.906;8.404;2022-11-20T03:09:59;-1.30;99.90
1411;DHT22;700;51.906;8.404;2022-11-20T03:15:00;-1.40;99.90
1411;DHT22;700;51.906;8.404;2022-11-20T03:20:06;-1.40;99.90
1411;DHT22;700;51.906;8.404;2022-11-20T03:25:09;-1.60;99.90
1411;DHT22;700;51.906;8.404;2022-11-20T03:30:13;-1.40;99.90
1411;DHT22;700;51.906;8.404;2022-11-20T03:35:16;-1.40;99.90
1411;DHT22;700;51.906;8.404;2022-11-20T03:40:16;-1.40;99.90
1411;DHT22;700;51.906;8.404;2022-11-20T03:45:20;-1.40;99.90
1411;DHT22;700;51.906;8.404;2022-11-20T03:50:20;-1.40;99.90
1411;DHT22;700;51.906;8.404;2022-11-20T03:55:23;-1.20;99.90
1411;DHT22;700;51.906;8.404;2022-11-20T04:00:24;-1.10;99.90
1411;DHT22;700;51.906;8.404;2022-11-20T04:05:24;-1.10;99.90
1411;DHT22;700;51.906;8.404;2022-11-20T04:10:25;-1.30;99.90
1411;DHT22;700;51.906;8.404;2022-11-20T04:15:26;-1.30;99.90
1411;DHT22;700;51.906;8.404;2022-11-20T04:20:26;-1.20;99.90
1411;DHT22;700;51.906;8.404;2022-11-20T04:25:27;-1.50;99.90
1411;DHT22;700;51.906;8.404;2022-11-20T04:30:28;-1.40;99.90
1411;DHT22;700;51.906;8.404;2022-11-20T04:35:28;-1.40;99.90
1411;DHT22;700;51.906;8.404;2022-11-20T04:40:29;-1.40;99.90
1411;DHT22;700;51.906;8.404;2022-11-20T04:45:30;-1.20;99.90
1411;DHT22;700;51.906;8.404;2022-11-20T04:50:31;-1.60;99.90
1411;DHT22;700;51.906;8.404;2022-11-20T04:55:31;-1.70;99.90
1411;DHT22;700;51.906;8.404;2022-11-20T05:00:32;-1.70;99.90
1411;DHT22;700;51.906;8.404;2022-11-20T05:05:35;-1.70;99.90
1411;DHT22;700;51.906;8.404;2022-11-20T05:10:38;-1.70;99.90
1411;DHT22;700;51.906;8.404;2022-11-20T05:15:39;-1.90;99.90
1411;DHT22;700;51.906;8.404;2022-11-20T05:20:46;-1.80;99.90
1411;DHT22;700;51.906;8.404;2022-11-20T05:25:51;-1.90;99.90
1411;DHT22;700;51.906;8.404;2022-11-20T05:30:51;-1.70;99.90
1411;DHT22;700;51.906;8.404;2022-11-20T05:35:52;-1.60;99.90
1411;DHT22;700;51.906;8.404;2022-11-20T05:40:55;-1.60;99.90
1411;DHT22;700;51.906;8.404;2022-11-20T05:45:55;-1.80;99.90
1411;DHT22;700;51.906;8.404;2022-11-20T05:51:03;-2.00;99.90
1411;DHT22;700;51.906;8.404;2022-11-20T05:56:10;-1.90;99.90
1411;DHT22;700;51.906;8.404;2022-11-20T06:01:21;-1.80;99.90
1411;DHT22;700;51.906;8.404;2022-11-20T06:06:22;-2.30;99.90
1411;DHT22;700;51.906;8.404;2022-11-20T06:11:23;-2.00;99.90
1411;DHT22;700;51.906;8.404;2022-11-20T06:16:24;-2.10;99.90
1411;DHT22;700;51.906;8.404;2022-11-20T06:21:24;-2.20;99.90
1411;DHT22;700;51.906;8.404;2022-11-20T06:26:26;-2.10;99.90
1411;DHT22;700;51.906;8.404;2022-11-20T06:31:28;-1.90;99.90
1411;DHT22;700;51.906;8.404;2022-11-20T06:36:29;-1.90;99.90
1411;DHT22;700;51.906;8.404;2022-11-20T06:41:32;-1.40;99.90
1411;DHT22;700;51.906;8.404;2022-11-20T06:46:32;-1.60;99.90
1411;DHT22;700;51.906;8.404;2022-11-20T06:51:33;-1.30;99.90
1411;DHT22;700;51.906;8.404;2022-11-20T06:56:36;-1.00;99.90
1411;DHT22;700;51.906;8.404;2022-11-20T07:01:36;-1.10;99.90
1411;DHT22;700;51.906;8.404;2022-11-20T07:06:37;-0.90;99.90
1411;DHT22;700;51.906;8.404;2022-11-20T07:11:38;-0.80;99.90
1411;DHT22;700;51.906;8.404;2022-11-20T07:16:38;-0.70;99.90
1411;DHT22;700;51.906;8.404;2022-11-20T07:21:39;-1.00;99.90
1411;DHT22;700;51.906;8.404;2022-11-20T07:26:39;-0.70;99.90
1411;DHT22;700;51.906;8.404;2022-11-20T07:31:40;-0.50;99.90
1411;DHT22;700;51.906;8.404;2022-11-20T07:36:41;-0.30;99.90
1411;DHT22;700;51.906;8.404;2022-11-20T07:41:44;0.00;99.90
1411;DHT22;700;51.906;8.404;2022-11-20T07:46:47;0.30;99.90
1411;DHT22;700;51.906;8.404;2022-11-20T07:51:50;0.60;99.90
1411;DHT22;700;51.906;8.404;2022-11-20T07:56:53;0.80;99.90
1411;DHT22;700;51.906;8.404;2022-11-20T08:01:56;0.80;99.90
1411;DHT22;700;51.906;8.404;2022-11-20T08:06:57;0.50;99.90
1411;DHT22;700;51.906;8.404;2022-11-20T08:12:00;1.00;99.90
1411;DHT22;700;51.906;8.404;2022-11-20T08:17:19;1.70;99.90
1411;DHT22;700;51.906;8.404;2022-11-20T08:22:19;1.90;99.90
1411;DHT22;700;51.906;8.404;2022-11-20T08:27:21;2.00;99.90
1411;DHT22;700;51.906;8.404;2022-11-20T08:32:21;2.10;99.90
1411;DHT22;700;51.906;8.404;2022-11-20T08:37:24;2.00;99.90
1411;DHT22;700;51.906;8.404;2022-11-20T08:42:25;2.60;99.90
1411;DHT22;700;51.906;8.404;2022-11-20T08:47:28;3.20;99.90
1411;DHT22;700;51.906;8.404;2022-11-20T08:52:32;3.10;99.90
1411;DHT22;700;51.906;8.404;2022-11-20T08:57:36;2.80;99.90
1411;DHT22;700;51.906;8.404;2022-11-20T09:02:39;3.90;99.90
1411;DHT22;700;51.906;8.404;2022-11-20T09:07:40;6.90;99.90
1411;DHT22;700;51.906;8.404;2022-11-20T09:12:41;9.50;99.90
1411;DHT22;700;51.906;8.404;2022-11-20T09:17:42;13.20;92.30
1411;DHT22;700;51.906;8.404;2022-11-20T09:22:42;14.80;76.30
1411;DHT22;700;51.906;8.404;2022-11-20T09:27:46;14.90;71.90
1411;DHT22;700;51.906;8.404;2022-11-20T09:32:51;15.60;70.90
1411;DHT22;700;51.906;8.404;2022-11-20T09:37:54;17.00;63.90
1411;DHT22;700;51.906;8.404;2022-11-20T09:48:20;16.70;61.30
1411;DHT22;700;51.906;8.404;2022-11-20T09:59:02;18.00;60.20
1411;DHT22;700;51.906;8.404;2022-11-20T10:04:24;19.70;57.50
1411;DHT22;700;51.906;8.404;2022-11-20T10:09:31;17.60;56.60
1411;DHT22;700;51.906;8.404;2022-11-20T10:25:14;17.40;57.20
1411;DHT22;700;51.906;8.404;2022-11-20T10:30:18;16.50;58.00
1411;DHT22;700;51.906;8.404;2022-11-20T10:35:36;15.40;59.10
1411;DHT22;700;51.906;8.404;2022-11-20T10:40:42;13.40;63.70
1411;DHT22;700;51.906;8.404;2022-11-20T10:45:55;11.30;69.90
1411;DHT22;700;51.906;8.404;2022-11-20T10:56:34;10.70;77.10
1411;DHT22;700;51.906;8.404;2022-11-20T11:01:41;10.40;80.00
1411;DHT22;700;51.906;8.404;2022-11-20T11:06:47;9.80;86.40
1411;DHT22;700;51.906;8.404;2022-11-20T11:11:48;8.40;91.90
1411;DHT22;700;51.906;8.404;2022-11-20T11:16:51;8.40;96.60
1411;DHT22;700;51.906;8.404;2022-11-20T11:21:56;7.90;99.70
1411;DHT22;700;51.906;8.404;2022-11-20T11:27:02;8.00;99.90
1411;DHT22;700;51.906;8.404;2022-11-20T11:32:11;9.40;99.90
1411;DHT22;700;51.906;8.404;2022-11-20T11:37:19;11.50;95.90
1411;DHT22;700;51.906;8.404;2022-11-20T11:42:24;12.70;90.90
1411;DHT22;700;51.906;8.404;2022-11-20T11:47:32;12.40;90.00
1411;DHT22;700;51.906;8.404;2022-11-20T12:03:33;8.20;99.90
1411;DHT22;700;51.906;8.404;2022-11-20T12:08:55;7.60;99.90
1411;DHT22;700;51.906;8.404;2022-11-20T12:14:11;7.60;99.90
1411;DHT22;700;51.906;8.404;2022-11-20T12:19:14;7.30;99.90
1411;DHT22;700;51.906;8.404;2022-11-20T12:30:08;7.70;99.90
1411;DHT22;700;51.906;8.404;2022-11-20T12:35:35;7.90;99.90
1411;DHT22;700;51.906;8.404;2022-11-20T12:40:44;8.50;99.90
1411;DHT22;700;51.906;8.404;2022-11-20T12:51:32;6.50;99.90
1411;DHT22;700;51.906;8.404;2022-11-20T13:02:03;6.60;99.90
1411;DHT22;700;51.906;8.404;2022-11-20T13:07:13;9.00;99.90
1411;DHT22;700;51.906;8.404;2022-11-20T13:17:36;10.60;99.90
1411;DHT22;700;51.906;8.404;2022-11-20T13:22:44;10.40;99.90
1411;DHT22;700;51.906;8.404;2022-11-20T13:27:49;10.30;99.90
1411;DHT22;700;51.906;8.404;2022-11-20T13:33:43;10.60;99.90
1411;DHT22;700;51.906;8.404;2022-11-20T13:38:18;9.30;99.90
1411;DHT22;700;51.906;8.404;2022-11-20T13:48:33;8.40;99.90
1411;DHT22;700;51.906;8.404;2022-11-20T13:58:59;8.10;99.90
1411;DHT22;700;51.906;8.404;2022-11-20T14:04:09;8.00;99.90
1411;DHT22;700;51.906;8.404;2022-11-20T14:09:23;8.10;99.90
1411;DHT22;700;51.906;8.404;2022-11-20T14:14:27;8.20;99.90
1411;DHT22;700;51.906;8.404;2022-11-20T14:19:29;7.50;99.90
1411;DHT22;700;51.906;8.404;2022-11-20T14:24:33;7.50;99.90
1411;DHT22;700;51.906;8.404;2022-11-20T14:29:36;6.90;99.90
1411;DHT22;700;51.906;8.404;2022-11-20T14:34:39;7.10;99.90
1411;DHT22;700;51.906;8.404;2022-11-20T14:39:50;6.80;99.90
1411;DHT22;700;51.906;8.404;2022-11-20T14:44:55;6.80;99.90
1411;DHT22;700;51.906;8.404;2022-11-20T14:49:57;6.90;99.90
1411;DHT22;700;51.906;8.404;2022-11-20T14:55:03;6.90;99.90
1411;DHT22;700;51.906;8.404;2022-11-20T15:05:13;6.60;99.90
1411;DHT22;700;51.906;8.404;2022-11-20T15:10:25;6.60;99.90
1411;DHT22;700;51.906;8.404;2022-11-20T15:15:49;6.50;99.90
1411;DHT22;700;51.906;8.404;2022-11-20T15:20:50;6.50;99.90
1411;DHT22;700;51.906;8.404;2022-11-20T15:25:54;6.40;99.90
1411;DHT22;700;51.906;8.404;2022-11-20T15:30:55;6.20;99.90
1411;DHT22;700;51.906;8.404;2022-11-20T15:35:58;6.30;99.90
1411;DHT22;700;51.906;8.404;2022-11-20T15:40:59;6.30;99.90
1411;DHT22;700;51.906;8.404;2022-11-20T15:46:09;5.90;99.90
1411;DHT22;700;51.906;8.404;2022-11-20T15:56:12;6.30;99.90
1411;DHT22;700;51.906;8.404;2022-11-20T16:01:18;6.30;99.90
1411;DHT22;700;51.906;8.404;2022-11-20T16:06:19;6.00;99.90
1411;DHT22;700;51.906;8.404;2022-11-20T16:11:20;6.10;99.90
1411;DHT22;700;51.906;8.404;2022-11-20T16:16:47;5.70;99.90
1411;DHT22;700;51.906;8.404;2022-11-20T16:21:50;5.80;99.90
1411;DHT22;700;51.906;8.404;2022-11-20T16:26:53;6.10;99.90
1411;DHT22;700;51.906;8.404;2022-11-20T16:31:54;6.30;99.90
1411;DHT22;700;51.906;8.404;2022-11-20T16:36:57;6.20;99.90
1411;DHT22;700;51.906;8.404;2022-11-20T16:41:57;6.10;99.90
1411;DHT22;700;51.906;8.404;2022-11-20T16:46:58;6.40;99.90
1411;DHT22;700;51.906;8.404;2022-11-20T16:51:58;6.20;99.90
1411;DHT22;700;51.906;8.404;2022-11-20T16:56:59;5.80;99.90
1411;DHT22;700;51.906;8.404;2022-11-20T17:02:00;5.60;99.90
1411;DHT22;700;51.906;8.404;2022-11-20T17:07:00;5.70;99.90
1411;DHT22;700;51.906;8.404;2022-11-20T17:12:05;6.10;99.90
1411;DHT22;700;51.906;8.404;2022-11-20T17:17:05;6.00;99.90
1411;DHT22;700;51.906;8.404;2022-11-20T17:22:08;6.00;99.90
1411;DHT22;700;51.906;8.404;2022-11-20T17:27:09;6.20;99.90
1411;DHT22;700;51.906;8.404;2022-11-20T17:32:10;5.80;99.90
1411;DHT22;700;51.906;8.404;2022-11-20T17:37:10;6.20;99.90
1411;DHT22;700;51.906;8.404;2022-11-20T17:42:13;6.00;99.90
1411;DHT22;700;51.906;8.404;2022-11-20T17:47:26;5.70;99.90
1411;DHT22;700;51.906;8.404;2022-11-20T17:52:32;5.90;99.90
1411;DHT22;700;51.906;8.404;2022-11-20T17:57:35;6.10;99.90
1411;DHT22;700;51.906;8.404;2022-11-20T18:02:55;6.00;99.90
1411;DHT22;700;51.906;8.404;2022-11-20T18:08:01;5.80;99.90
1411;DHT22;700;51.906;8.404;2022-11-20T18:13:01;5.50;99.90
1411;DHT22;700;51.906;8.404;2022-11-20T18:18:04;5.40;99.90
1411;DHT22;700;51.906;8.404;2022-11-20T18:23:05;5.30;99.90
1411;DHT22;700;51.906;8.404;2022-11-20T18:28:08;5.10;99.90
1411;DHT22;700;51.906;8.404;2022-11-20T18:33:09;4.50;99.90
1411;DHT22;700;51.906;8.404;2022-11-20T18:38:09;4.70;99.90
1411;DHT22;700;51.906;8.404;2022-11-20T18:43:10;4.90;99.90
1411;DHT22;700;51.906;8.404;2022-11-20T18:48:32;4.70;99.90
1411;DHT22;700;51.906;8.404;2022-11-20T18:53:36;5.00;99.90
1411;DHT22;700;51.906;8.404;2022-11-20T18:58:37;5.20;99.90
1411;DHT22;700;51.906;8.404;2022-11-20T19:03:39;5.40;99.90
1411;DHT22;700;51.906;8.404;2022-11-20T19:08:40;5.30;99.90
1411;DHT22;700;51.906;8.404;2022-11-20T19:13:41;5.40;99.90
1411;DHT22;700;51.906;8.404;2022-11-20T19:18:45;5.20;99.90
1411;DHT22;700;51.906;8.404;2022-11-20T19:23:52;5.50;99.90
1411;DHT22;700;51.906;8.404;2022-11-20T19:28:53;5.50;99.90
1411;DHT22;700;51.906;8.404;2022-11-20T19:33:58;5.40;99.90
1411;DHT22;700;51.906;8.404;2022-11-20T19:39:00;5.50;99.90
1411;DHT22;700;51.906;8.404;2022-11-20T19:44:10;5.70;99.90
1411;DHT22;700;51.906;8.404;2022-11-20T19:49:16;5.60;99.90
1411;DHT22;700;51.906;8.404;2022-11-20T19:54:19;5.50;99.90
1411;DHT22;700;51.906;8.404;2022-11-20T19:59:22;5.60;99.90
1411;DHT22;700;51.906;8.404;2022-11-20T20:04:23;5.40;99.90
1411;DHT22;700;51.906;8.404;2022-11-20T20:09:23;5.50;99.90
1411;DHT22;700;51.906;8.404;2022-11-20T20:14:26;5.50;99.90
1411;DHT22;700;51.906;8.404;2022-11-20T20:19:27;5.50;99.90
1411;DHT22;700;51.906;8.404;2022-11-20T20:24:28;5.20;99.90
1411;DHT22;700;51.906;8.404;2022-11-20T20:29:29;5.50;99.90
1411;DHT22;700;51.906;8.404;2022-11-20T20:34:31;5.40;99.90
1411;DHT22;700;51.906;8.404;2022-11-20T20:39:32;5.40;99.90
1411;DHT22;700;51.906;8.404;2022-11-20T20:44:35;5.30;99.90
1411;DHT22;700;51.906;8.404;2022-11-20T20:49:54;5.40;99.90
1411;DHT22;700;51.906;8.404;2022-11-20T20:54:55;5.30;99.90
1411;DHT22;700;51.906;8.404;2022-11-20T21:00:00;5.50;99.90
1411;DHT22;700;51.906;8.404;2022-11-20T21:05:03;5.40;99.90
1411;DHT22;700;51.906;8.404;2022-11-20T21:10:04;5.60;99.90
1411;DHT22;700;51.906;8.404;2022-11-20T21:15:05;5.50;99.90
1411;DHT22;700;51.906;8.404;2022-11-20T21:20:06;5.50;99.90
1411;DHT22;700;51.906;8.404;2022-11-20T21:25:34;5.60;99.90
1411;DHT22;700;51.906;8.404;2022-11-20T21:30:35;5.70;99.90
1411;DHT22;700;51.906;8.404;2022-11-20T21:35:36;5.60;99.90
1411;DHT22;700;51.906;8.404;2022-11-20T21:40:39;5.90;99.90
1411;DHT22;700;51.906;8.404;2022-11-20T21:45:40;5.90;99.90
1411;DHT22;700;51.906;8.404;2022-11-20T21:50:41;6.00;99.90
1411;DHT22;700;51.906;8.404;2022-11-20T21:55:41;6.10;99.90
1411;DHT22;700;51.906;8.404;2022-11-20T22:00:42;6.10;99.90
1411;DHT22;700;51.906;8.404;2022-11-20T22:05:42;6.10;99.90
1411;DHT22;700;51.906;8.404;2022-11-20T22:11:08;6.20;99.90
1411;DHT22;700;51.906;8.404;2022-11-20T22:16:11;6.10;99.90
1411;DHT22;700;51.906;8.404;2022-11-20T22:21:16;6.10;99.90
1411;DHT22;700;51.906;8.404;2022-11-20T22:26:19;5.90;99.90
1411;DHT22;700;51.906;8.404;2022-11-20T22:31:22;6.10;99.90
1411;DHT22;700;51.906;8.404;2022-11-20T22:36:29;6.20;99.90
1411;DHT22;700;51.906;8.404;2022-11-20T22:41:30;6.10;99.90
1411;DHT22;700;51.906;8.404;2022-11-20T22:46:34;6.10;99.90
1411;DHT22;700;51.906;8.404;2022-11-20T22:51:37;6.00;99.90
1411;DHT22;700;51.906;8.404;2022-11-20T22:56:38;6.00;99.90
1411;DHT22;700;51.906;8.404;2022-11-20T23:01:39;5.90;99.90
1411;DHT22;700;51.906;8.404;2022-11-20T23:06:42;5.90;99.90
1411;DHT22;700;51.906;8.404;2022-11-20T23:11:45;5.80;99.90
1411;DHT22;700;51.906;8.404;2022-11-20T23:16:48;5.90;99.90
1411;DHT22;700;51.906;8.404;2022-11-20T23:21:49;5.80;99.90
1411;DHT22;700;51.906;8.404;2022-11-20T23:26:50;5.70;99.90
1411;DHT22;700;51.906;8.404;2022-11-20T23:31:52;5.70;99.90
1411;DHT22;700;51.906;8.404;2022-11-20T23:36:56;5.50;99.90
1411;DHT22;700;51.906;8.404;2022-11-20T23:41:56;5.60;99.90
1411;DHT22;700;51.906;8.404;2022-11-20T23:46:57;5.70;99.90
1411;DHT22;700;51.906;8.404;2022-11-20T23:51:57;5.70;99.90
1411;DHT22;700;51.906;8.404;2022-11-20T23:57:00;5.80;99.90
